createdAt,value
2019-04-25T00:00:12.142Z,18.53
2019-04-25T00:03:16.178Z,18.17
2019-04-25T00:06:21.540Z,19.17
2019-04-25T00:09:28.459Z,18.50
2019-04-25T00:12:32.308Z,18.17
2019-04-25T00:15:36.006Z,18.33
2019-04-25T00:18:40.200Z,19.00
2019-04-25T00:22:02.054Z,20.97
2019-04-25T00:25:31.393Z,18.97
2019-04-25T00:28:35.486Z,20.47
2019-04-25T00:31:39.236Z,20.67
2019-04-25T00:34:44.462Z,20.27
2019-04-25T00:37:48.679Z,18.90
2019-04-25T00:40:53.585Z,18.77
2019-04-25T00:43:57.294Z,19.13
2019-04-25T00:47:02.493Z,23.33
2019-04-25T00:50:06.909Z,19.57
2019-04-25T00:53:11.367Z,19.20
2019-04-25T00:56:15.416Z,22.97
2019-04-25T00:59:27.993Z,22.57
2019-04-25T01:02:39.298Z,20.05
2019-04-25T01:05:44.372Z,21.57
2019-04-25T01:08:49.735Z,23.73
2019-04-25T01:11:53.963Z,20.23
2019-04-25T01:14:57.858Z,20.43
2019-04-25T01:18:01.666Z,18.70
2019-04-25T01:21:06.499Z,18.62
2019-04-25T01:24:10.657Z,19.80
2019-04-25T01:27:14.537Z,20.53
2019-04-25T01:30:20.149Z,24.00
2019-04-25T01:33:23.887Z,22.60
2019-04-25T01:36:35.094Z,20.60
2019-04-25T01:39:58.448Z,26.10
2019-04-25T01:43:14.898Z,22.47
2019-04-25T01:46:18.962Z,21.70
2019-04-25T01:49:23.924Z,22.00
2019-04-25T01:52:28.035Z,21.90
2019-04-25T01:55:33.513Z,19.73
2019-04-25T01:58:37.358Z,20.63
2019-04-25T02:01:41.190Z,19.93
2019-04-25T02:04:44.937Z,19.60
2019-04-25T02:07:48.790Z,19.63
2019-04-25T02:11:04.728Z,20.13
2019-04-25T02:14:09.134Z,20.80
2019-04-25T02:17:14.127Z,21.43
2019-04-25T02:20:18.109Z,26.47
2019-04-25T02:23:21.987Z,23.47
2019-04-25T02:26:26.023Z,24.53
2019-04-25T02:29:30.041Z,22.50
2019-04-25T02:32:36.635Z,25.37
2019-04-25T02:35:42.903Z,24.03
2019-04-25T02:38:44.917Z,24.23
2019-04-25T02:41:49.136Z,24.17
2019-04-25T02:45:03.165Z,23.18
2019-04-25T02:48:25.246Z,25.43
2019-04-25T02:51:45.474Z,27.60
2019-04-25T02:54:49.239Z,26.33
2019-04-25T02:57:54.198Z,25.20
2019-04-25T03:01:07.999Z,25.40
2019-04-25T03:04:07.425Z,24.30
2019-04-25T03:07:11.278Z,25.30
2019-04-25T03:10:15.384Z,24.33
2019-04-25T03:13:19.174Z,25.00
2019-04-25T03:16:24.977Z,25.97
2019-04-25T03:19:59.271Z,24.40
2019-04-25T03:23:14.211Z,28.13
2019-04-25T03:26:17.858Z,23.07
2019-04-25T03:29:21.983Z,17.63
2019-04-25T03:32:28.359Z,17.80
2019-04-25T03:35:33.162Z,17.07
2019-04-25T03:38:37.031Z,16.17
2019-04-25T03:41:40.803Z,16.37
2019-04-25T03:44:44.514Z,16.23
2019-04-25T03:47:48.193Z,17.03
2019-04-25T03:50:52.198Z,19.70
2019-04-25T03:53:55.950Z,16.20
2019-04-25T03:56:59.742Z,14.53
2019-04-25T04:00:06.211Z,13.67
2019-04-25T04:03:09.419Z,12.65
2019-04-25T04:06:14.597Z,13.40
2019-04-25T04:09:18.576Z,13.93
2019-04-25T04:12:22.269Z,12.53
2019-04-25T04:15:25.970Z,12.13
2019-04-25T04:18:39.130Z,12.73
2019-04-25T04:21:53.484Z,12.83
2019-04-25T04:24:58.766Z,13.23
2019-04-25T04:28:03.797Z,14.03
2019-04-25T04:31:08.351Z,14.93
2019-04-25T04:34:14.321Z,15.33
2019-04-25T04:37:17.620Z,15.47
2019-04-25T04:40:21.422Z,13.13
2019-04-25T04:43:25.629Z,13.83
2019-04-25T04:46:29.374Z,14.87
2019-04-25T04:49:34.114Z,10.67
2019-04-25T04:52:37.970Z,9.77
2019-04-25T04:55:43.170Z,8.83
2019-04-25T04:58:47.194Z,7.80
2019-04-25T05:02:03.348Z,7.20
2019-04-25T05:05:34.429Z,7.83
2019-04-25T05:08:43.552Z,8.20
2019-04-25T05:11:47.351Z,6.47
2019-04-25T05:14:51.328Z,5.73
2019-04-25T05:17:55.111Z,5.80
2019-04-25T05:20:58.778Z,7.43
2019-04-25T05:24:04.081Z,5.53
2019-04-25T05:27:07.884Z,9.50
2019-04-25T05:30:16.572Z,5.30
2019-04-25T05:33:21.567Z,4.80
2019-04-25T05:36:37.331Z,4.50
2019-04-25T05:39:41.454Z,4.77
2019-04-25T05:42:54.279Z,7.30
2019-04-25T05:45:58.021Z,5.87
2019-04-25T05:49:01.702Z,4.85
2019-04-25T05:52:05.621Z,5.13
2019-04-25T05:55:09.453Z,10.47
2019-04-25T05:58:13.815Z,4.80
2019-04-25T06:01:18.843Z,4.27
2019-04-25T06:04:24.620Z,3.73
2019-04-25T06:07:28.058Z,4.80
2019-04-25T06:10:37.701Z,4.30
2019-04-25T06:13:46.054Z,3.53
2019-04-25T06:16:51.206Z,3.40
2019-04-25T06:19:55.154Z,4.70
2019-04-25T06:23:08.568Z,4.50
2019-04-25T06:26:22.932Z,2.90
2019-04-25T06:29:20.361Z,2.60
2019-04-25T06:32:24.959Z,3.13
2019-04-25T06:35:29.630Z,3.10
2019-04-25T06:38:33.898Z,2.60
2019-04-25T06:41:37.854Z,3.33
2019-04-25T06:44:54.226Z,2.50
2019-04-25T06:48:06.949Z,2.30
2019-04-25T06:51:10.641Z,2.77
2019-04-25T06:54:14.319Z,4.63
2019-04-25T06:57:18.025Z,6.03
2019-04-25T07:00:26.259Z,13.33
2019-04-25T07:03:30.011Z,2.77
2019-04-25T07:06:34.686Z,2.70
2019-04-25T07:09:38.648Z,2.40
2019-04-25T07:12:44.271Z,4.30
2019-04-25T07:15:48.165Z,2.50
2019-04-25T07:18:53.422Z,8.40
2019-04-25T07:21:57.232Z,1.80
2019-04-25T07:25:01.201Z,1.80
2019-04-25T07:28:35.630Z,3.53
2019-04-25T07:31:51.689Z,3.90
2019-04-25T07:34:55.657Z,2.47
2019-04-25T07:37:59.416Z,2.10
2019-04-25T07:41:03.605Z,1.63
2019-04-25T07:44:07.539Z,1.67
2019-04-25T07:47:11.520Z,1.82
2019-04-25T07:50:15.937Z,3.33
2019-04-25T07:53:19.637Z,3.23
2019-04-25T07:56:24.111Z,1.50
2019-04-25T07:59:28.990Z,1.40
2019-04-25T08:02:34.137Z,1.40
2019-04-25T08:05:38.318Z,2.10
2019-04-25T08:08:43.533Z,1.60
2019-04-25T08:11:47.445Z,1.30
2019-04-25T08:15:10.237Z,2.40
2019-04-25T08:18:14.504Z,1.20
2019-04-25T08:21:18.291Z,2.37
2019-04-25T08:24:23.980Z,1.23
2019-04-25T08:27:28.222Z,1.20
2019-04-25T08:30:32.005Z,2.47
2019-04-25T08:33:36.870Z,1.50
2019-04-25T08:36:41.482Z,2.13
2019-04-25T08:39:45.486Z,1.50
2019-04-25T08:42:49.427Z,1.40
2019-04-25T08:45:54.406Z,4.13
2019-04-25T08:49:06.413Z,1.30
2019-04-25T08:52:10.312Z,1.70
2019-04-25T08:55:32.994Z,1.37
2019-04-25T08:58:44.540Z,2.10
2019-04-25T09:01:58.110Z,1.40
2019-04-25T09:05:19.721Z,1.90
2019-04-25T09:08:24.052Z,1.80
2019-04-25T09:11:28.045Z,1.50
2019-04-25T09:14:32.412Z,1.80
2019-04-25T09:17:37.993Z,2.17
2019-04-25T09:20:43.091Z,1.60
2019-04-25T09:23:47.229Z,3.30
2019-04-25T09:26:51.145Z,3.17
2019-04-25T09:29:55.133Z,2.27
2019-04-25T09:32:59.126Z,3.70
2019-04-25T09:36:02.906Z,3.50
2019-04-25T09:39:19.956Z,2.43
2019-04-25T09:42:23.849Z,3.53
2019-04-25T09:45:40.103Z,1.70
2019-04-25T09:49:01.466Z,1.70
2019-04-25T09:52:13.276Z,1.60
2019-04-25T09:55:29.835Z,2.27
2019-04-25T09:58:54.382Z,3.90
2019-04-25T10:01:58.090Z,1.83
2019-04-25T10:05:01.800Z,5.27
2019-04-25T10:08:05.651Z,1.70
2019-04-25T10:11:09.515Z,1.50
2019-04-25T10:14:40.841Z,1.63
2019-04-25T10:17:45.280Z,1.00
2019-04-25T10:20:50.571Z,1.10
2019-04-25T10:23:54.370Z,0.80
2019-04-25T10:26:59.901Z,2.73
2019-04-25T10:30:16.081Z,2.10
2019-04-25T10:33:10.126Z,2.13
2019-04-25T10:36:14.497Z,1.30
2019-04-25T10:39:18.320Z,1.97
2019-04-25T10:42:23.755Z,6.40
2019-04-25T10:45:27.689Z,4.80
2019-04-25T10:48:31.464Z,3.27
2019-04-25T10:51:35.165Z,2.90
2019-04-25T10:54:39.836Z,6.50
2019-04-25T10:57:45.192Z,1.40
2019-04-25T11:00:50.884Z,1.27
2019-04-25T11:04:08.136Z,3.70
2019-04-25T11:07:13.548Z,1.30
2019-04-25T11:10:18.273Z,1.00
2019-04-25T11:13:22.190Z,1.03
2019-04-25T11:16:26.137Z,1.20
2019-04-25T11:19:29.849Z,2.47
2019-04-25T11:22:34.189Z,1.50
2019-04-25T11:25:37.994Z,1.37
2019-04-25T11:28:42.676Z,1.50
2019-04-25T11:31:48.834Z,1.10
2019-04-25T11:34:53.518Z,2.07
2019-04-25T11:38:00.291Z,2.37
2019-04-25T11:41:09.463Z,3.53
2019-04-25T11:44:13.954Z,1.57
2019-04-25T11:47:17.741Z,2.77
2019-04-25T11:50:21.395Z,4.73
2019-04-25T11:53:25.311Z,1.60
2019-04-25T11:56:29.079Z,4.73
2019-04-25T11:59:34.123Z,4.03
2019-04-25T12:02:37.975Z,3.20
2019-04-25T12:05:42.961Z,0.90
2019-04-25T12:08:47.714Z,1.10
2019-04-25T12:11:52.324Z,5.60
2019-04-25T12:14:56.559Z,1.40
2019-04-25T12:18:00.301Z,0.93
2019-04-25T12:21:04.647Z,1.10
2019-04-25T12:24:08.421Z,1.00
2019-04-25T12:27:12.606Z,1.73
2019-04-25T12:30:16.632Z,0.90
2019-04-25T12:33:21.614Z,1.53
2019-04-25T12:36:25.515Z,0.87
2019-04-25T12:39:29.398Z,0.80
2019-04-25T12:42:34.377Z,1.20
2019-04-25T12:45:43.504Z,1.10
2019-04-25T12:48:47.667Z,1.13
2019-04-25T12:51:52.681Z,3.70
2019-04-25T12:54:58.142Z,2.73
2019-04-25T12:58:03.433Z,3.13
2019-04-25T13:01:07.981Z,2.73
2019-04-25T13:04:11.914Z,13.80
2019-04-25T13:07:15.706Z,2.77
2019-04-25T13:10:19.622Z,1.50
2019-04-25T13:13:24.140Z,1.20
2019-04-25T13:16:27.908Z,1.00
2019-04-25T13:19:34.132Z,1.10
2019-04-25T13:22:38.023Z,1.10
2019-04-25T13:25:41.723Z,1.17
2019-04-25T13:28:54.134Z,1.80
2019-04-25T13:32:16.191Z,1.70
2019-04-25T13:35:24.702Z,2.57
2019-04-25T13:38:28.438Z,1.00
2019-04-25T13:41:32.154Z,1.00
2019-04-25T13:44:36.134Z,1.03
2019-04-25T13:47:40.214Z,2.53
2019-04-25T13:50:44.350Z,2.90
2019-04-25T13:53:48.259Z,1.00
2019-04-25T13:56:53.388Z,0.90
2019-04-25T13:59:57.239Z,1.47
2019-04-25T14:03:01.030Z,5.93
2019-04-25T14:06:05.083Z,1.90
2019-04-25T14:09:13.352Z,1.83
2019-04-25T14:12:17.554Z,2.20
2019-04-25T14:15:24.922Z,0.90
2019-04-25T14:18:37.128Z,1.07
2019-04-25T14:21:40.838Z,0.80
2019-04-25T14:24:44.615Z,2.37
2019-04-25T14:27:48.547Z,1.37
2019-04-25T14:30:52.221Z,1.10
2019-04-25T14:33:56.038Z,1.37
2019-04-25T14:36:59.849Z,1.10
2019-04-25T14:40:06.727Z,0.90
2019-04-25T14:43:10.502Z,1.00
2019-04-25T14:46:14.270Z,2.67
2019-04-25T14:49:18.203Z,1.03
2019-04-25T14:52:22.172Z,1.07
2019-04-25T14:55:44.974Z,1.50
2019-04-25T14:58:48.738Z,1.00
2019-04-25T15:01:52.662Z,1.00
2019-04-25T15:04:56.313Z,5.53
2019-04-25T15:08:00.128Z,1.95
2019-04-25T15:11:03.948Z,3.33
2019-04-25T15:14:07.630Z,2.90
2019-04-25T15:17:11.449Z,1.03
2019-04-25T15:20:15.456Z,1.10
2019-04-25T15:23:19.174Z,1.30
2019-04-25T15:26:24.570Z,1.10
2019-04-25T15:29:28.530Z,2.00
2019-04-25T15:32:34.708Z,2.20
2019-04-25T15:35:50.225Z,1.80
2019-04-25T15:39:04.291Z,1.50
2019-04-25T15:42:25.037Z,1.50
2019-04-25T15:45:37.238Z,1.60
2019-04-25T15:48:41.124Z,1.60
2019-04-25T15:51:45.122Z,1.83
2019-04-25T15:54:48.828Z,2.23
2019-04-25T15:57:52.603Z,2.47
2019-04-25T16:00:56.834Z,2.63
2019-04-25T16:04:00.545Z,1.90
2019-04-25T16:07:04.609Z,2.27
2019-04-25T16:10:10.049Z,2.87
2019-04-25T16:13:13.950Z,1.87
2019-04-25T16:16:17.633Z,1.57
2019-04-25T16:19:21.635Z,1.50
2019-04-25T16:22:25.407Z,1.27
2019-04-25T16:25:29.933Z,1.53
2019-04-25T16:28:34.606Z,1.10
2019-04-25T16:31:38.688Z,1.13
2019-04-25T16:34:42.506Z,1.90
2019-04-25T16:37:46.195Z,1.13
2019-04-25T16:40:50.438Z,1.30
2019-04-25T16:43:58.552Z,1.20
2019-04-25T16:47:02.229Z,1.17
2019-04-25T16:50:06.558Z,1.10
2019-04-25T16:53:10.252Z,0.90
2019-04-25T16:56:14.043Z,1.23
2019-04-25T16:59:18.078Z,1.33
2019-04-25T17:02:32.783Z,1.00
2019-04-25T17:05:30.852Z,2.47
2019-04-25T17:08:35.549Z,1.50
2019-04-25T17:11:39.555Z,2.23
2019-04-25T17:15:04.522Z,3.10
2019-04-25T17:18:15.462Z,2.03
2019-04-25T17:21:20.687Z,2.17
2019-04-25T17:24:24.349Z,2.20
2019-04-25T17:27:28.166Z,2.53
2019-04-25T17:30:34.744Z,1.60
2019-04-25T17:33:46.036Z,3.90
2019-04-25T17:37:08.511Z,1.30
2019-04-25T17:40:15.423Z,1.43
2019-04-25T17:43:19.223Z,2.63
2019-04-25T17:46:23.736Z,1.53
2019-04-25T17:49:27.506Z,1.43
2019-04-25T17:52:32.615Z,2.23
2019-04-25T17:55:37.401Z,1.63
2019-04-25T17:58:41.282Z,1.40
2019-04-25T18:01:45.126Z,1.37
2019-04-25T18:04:48.880Z,1.70
2019-04-25T18:07:52.599Z,1.50
2019-04-25T18:10:56.397Z,1.90
2019-04-25T18:14:00.089Z,1.50
2019-04-25T18:17:04.196Z,3.03
2019-04-25T18:20:16.736Z,2.50
2019-04-25T18:23:51.982Z,2.73
2019-04-25T18:27:10.669Z,3.80
2019-04-25T18:30:14.474Z,1.90
2019-04-25T18:33:30.372Z,4.30
2019-04-25T18:40:07.265Z,2.00
2019-04-25T18:43:16.393Z,2.10
2019-04-25T18:46:24.390Z,2.63
2019-04-25T18:49:28.094Z,2.30
2019-04-25T18:52:49.512Z,2.20
2019-04-25T18:56:05.035Z,2.70
2019-04-25T18:59:26.522Z,2.30
2019-04-25T19:02:43.856Z,2.27
2019-04-25T19:05:51.499Z,2.70
2019-04-25T19:08:55.643Z,2.33
2019-04-25T19:11:59.663Z,2.07
2019-04-25T19:15:03.505Z,2.77
2019-04-25T19:18:07.549Z,2.30
2019-04-25T19:21:11.855Z,2.37
2019-04-25T19:24:15.566Z,2.20
2019-04-25T19:27:23.832Z,2.43
2019-04-25T19:30:24.796Z,2.50
2019-04-25T19:33:35.554Z,1.90
2019-04-25T19:36:34.182Z,1.90
2019-04-25T19:39:40.554Z,2.33
2019-04-25T19:42:48.881Z,2.37
2019-04-25T19:45:52.685Z,3.43
2019-04-25T19:48:56.473Z,4.17
2019-04-25T19:52:00.214Z,2.13
2019-04-25T19:55:04.382Z,2.00
2019-04-25T19:58:08.149Z,2.70
2019-04-25T20:01:11.863Z,3.07
2019-04-25T20:04:27.853Z,1.83
2019-04-25T20:07:36.629Z,3.20
2019-04-25T20:10:45.148Z,2.17
2019-04-25T20:13:49.228Z,2.17
2019-04-25T20:16:53.800Z,2.40
2019-04-25T20:19:57.610Z,2.60
2019-04-25T20:23:01.353Z,2.20
2019-04-25T20:26:05.150Z,2.03
2019-04-25T20:29:09.624Z,2.07
2019-04-25T20:32:19.937Z,2.03
2019-04-25T20:35:23.614Z,2.20
2019-04-25T20:38:27.318Z,1.97
2019-04-25T20:41:31.103Z,4.67
2019-04-25T20:44:36.547Z,1.80
2019-04-25T20:47:40.363Z,1.90
2019-04-25T20:50:44.043Z,2.10
2019-04-25T20:53:48.817Z,1.90
2019-04-25T20:56:53.025Z,2.77
2019-04-25T20:59:56.879Z,2.20
2019-04-25T21:03:01.400Z,2.30
2019-04-25T21:06:10.822Z,3.43
2019-04-25T21:09:14.709Z,1.70
2019-04-25T21:12:18.402Z,2.30
2019-04-25T21:15:40.238Z,2.40
2019-04-25T21:18:55.753Z,1.97
2019-04-25T21:21:59.509Z,2.77
2019-04-25T21:25:05.609Z,2.30
2019-04-25T21:28:08.929Z,2.40
2019-04-25T21:31:13.105Z,1.82
2019-04-25T21:34:25.777Z,3.33
2019-04-25T21:37:22.210Z,4.50
2019-04-25T21:40:44.786Z,2.60
2019-04-25T21:43:53.313Z,2.40
2019-04-25T21:46:58.468Z,2.57
2019-04-25T21:50:03.074Z,2.80
2019-04-25T21:53:07.402Z,2.57
2019-04-25T21:56:11.395Z,2.37
2019-04-25T21:59:15.146Z,2.50
2019-04-25T22:02:19.866Z,2.30
2019-04-25T22:05:23.878Z,2.40
2019-04-25T22:08:27.862Z,2.90
2019-04-25T22:11:31.704Z,2.90
2019-04-25T22:14:35.681Z,3.27
2019-04-25T22:17:39.347Z,2.97
2019-04-25T22:20:43.201Z,2.53
2019-04-25T22:23:47.250Z,2.80
2019-04-25T22:26:52.803Z,4.60
2019-04-25T22:29:59.940Z,3.17
2019-04-25T22:33:14.286Z,4.47
2019-04-25T22:36:20.628Z,3.27
2019-04-25T22:39:24.602Z,3.50
2019-04-25T22:42:28.854Z,3.10
2019-04-25T22:45:32.617Z,3.80
2019-04-25T22:48:48.489Z,4.17
2019-04-25T22:51:52.402Z,3.63
2019-04-25T22:54:56.145Z,5.00
2019-04-25T22:57:59.987Z,4.00
2019-04-25T23:01:05.650Z,3.90
2019-04-25T23:04:18.583Z,3.77
2019-04-25T23:07:22.265Z,3.87
2019-04-25T23:10:28.280Z,4.40
2019-04-25T23:13:32.009Z,3.90
2019-04-25T23:16:36.034Z,4.37
2019-04-25T23:19:39.729Z,4.97
2019-04-25T23:22:43.829Z,4.03
2019-04-25T23:26:05.192Z,5.00
2019-04-25T23:29:10.276Z,4.50
2019-04-25T23:32:14.658Z,4.20
2019-04-25T23:35:27.953Z,4.60
2019-04-25T23:38:24.045Z,4.90
2019-04-25T23:41:27.762Z,4.70
2019-04-25T23:44:31.533Z,4.10
2019-04-25T23:47:35.221Z,7.23
2019-04-25T23:50:39.389Z,5.03
2019-04-25T23:53:43.162Z,5.07
2019-04-25T23:56:46.874Z,4.70
2019-04-25T23:59:50.961Z,5.20
